AirNav   Pilot Hours Calculator
 
 1946 users online  

FD21 Moon Landing Seaplane Base
Orlando, Florida, USA

GOING TO ORLANDO?


FAA INFORMATION EFFECTIVE 02 JANUARY 2020

Location

FAA Identifier: FD21
Lat/Long: 28-22-36.2000N 081-10-41.3000W
28-22.603333N 081-10.688333W
28.3767222,-81.1781389
(estimated)
Elevation: 61 ft. / 19 m (estimated)
From city: 13 miles SE of ORLANDO, FL
Time zone: UTC -5 (UTC -4 during Daylight Saving Time)
Zip code: 32832

Seaplane Base Operations

Seaplane Base use: Private use. Permission required prior to landing
Activation date: 05/2017
Control tower: no
ARTCC: JACKSONVILLE CENTER
FSS: SAINT PETERSBURG FLIGHT SERVICE STATION
Attendance: 
Wind indicator: yes
Segmented circle: no

Seaplane Base Communications

WX ASOS at MCO (8 nm NW): PHONE 407-855-5235
WX ASOS at ORL (13 nm NW): PHONE 407-658-6753
WX AWOS-3PT at ISM (15 nm W): 128.775 (407-847-0533)

Nearby radio navigation aids

VOR radial/distance  VOR name  Freq  Var
ORLr140/12.9ORLANDO VORTAC112.2000E
MLBr307/33.0MELBOURNE VOR/DME110.0007W

Seaplane Base Services

Runway Information

Runway 18W/36W

Dimensions: 5313 x 500 ft. / 1619 x 152 m
Surface: water
RUNWAY 18W  RUNWAY 36W
Traffic pattern: leftleft

Runway 9W/27W

Dimensions: 4073 x 500 ft. / 1241 x 152 m
Surface: water
RUNWAY 9W  RUNWAY 27W
Traffic pattern: leftleft

Seaplane Base Ownership and Management from official FAA records

Ownership: Privately-owned
Owner: EDWARD MOON
13146 LAKE MARY JANE RD
ORLANDO, FL 32832
Phone 321-228-3116
Manager: EDWARD MOON
13146 LAKE MARY JANE RD
ORLANDO, FL 32832
Phone 321-228-3116

Seaplane Base Operational Statistics

Aircraft based on the field: 1
Single engine airplanes: 1
    

Additional Remarks

FOR CD CTC ORLANDO APCH AT 407-852-7553.

Instrument Procedures

There are no published instrument procedures at FD21.

Some nearby airports with instrument procedures:

KMCO - Orlando International Airport (8 nm NW)
KORL - Executive Airport (13 nm NW)
KISM - Kissimmee Gateway Airport (15 nm W)
KTIX - Space Coast Regional Airport (22 nm NE)
X21 - Arthur Dunn Air Park (23 nm NE)
 
Loc | Ops | Rwys | IFR | FBO | Links
Com | Nav | Svcs | Stats | Notes
Aerial photo
No photo
 
Airport distance calculator
Flying to Moon Landing Seaplane Base? Find the distance to fly.

From to FD21

Sunrise and sunset
Times for 27-Jan-2020
 Local
(UTC-5)
 Zulu
(UTC)
Morning civil twilight06:5111:51
Sunrise07:1612:16
Sunset17:5922:59
Evening civil twilight18:2423:24

Current date and time
Zulu (UTC)  27-Jan-2020 22:51:33
Local (UTC-5)  27-Jan-2020 17:51:33
 
METAR
KMCO 
9nm W 
272153Z 23006KT 10SM SCT050 OVC070 21/06 A2990 RMK AO2 SLP123 T02110061
KORL 
13nm NW 
272153Z 25007KT 10SM BKN050 OVC075 21/05 A2989 RMK AO2 SLP127 T02110050
KISM 
15nm SW 
272156Z 28006KT 10SM OVC046 20/08 A2991 RMK AO2 SLP130 T02000083
TAF
KMCO 
9nm W 
271738Z 2718/2824 25005KT P6SM SCT040 OVC070 FM280000 04003KT P6SM OVC050 FM280600 36005KT P6SM SCT050 FM281500 01008KT P6SM FEW045 FM282000 04006KT P6SM FEW030
KISM 
15nm SW 
271738Z 2718/2818 VRB04KT P6SM SCT050 OVC070 FM280000 02004KT P6SM OVC050 FM280600 35004KT P6SM SCT050 FM281500 01008KT P6SM FEW045
NOTAMs
Click for the latest NOTAMs
NOTAMs are issued by the DoD/FAA and will open in a separate window not controlled by AirNav.

 

 
 

Would you like to see your business listed on this page?

 If your business provides an interesting product or service to pilots, flight crews, aircraft, or users of the Moon Landing Seaplane Base, you should consider listing it here.  To start the listing process, click on the button below
 
Add a business
 

Other Pages about Moon Landing Seaplane Base

Update a link
 
Copyright © AirNav, LLC. All rights reserved. Privacy Policy  Contact